sensor_id;sensor_type;location;lat;lon;timestamp;temperature;humidity
13711;DHT22;6927;51.256;9.410;2022-09-12T00:00:49;11.20;99.90
13711;DHT22;6927;51.256;9.410;2022-09-12T00:03:15;11.20;99.90
13711;DHT22;6927;51.256;9.410;2022-09-12T00:05:42;11.20;99.90
13711;DHT22;6927;51.256;9.410;2022-09-12T00:08:09;11.10;99.90
13711;DHT22;6927;51.256;9.410;2022-09-12T00:10:42;11.10;99.90
13711;DHT22;6927;51.256;9.410;2022-09-12T00:13:09;11.10;99.90
13711;DHT22;6927;51.256;9.410;2022-09-12T00:15:39;11.10;99.90
13711;DHT22;6927;51.256;9.410;2022-09-12T00:18:05;11.10;99.90
13711;DHT22;6927;51.256;9.410;2022-09-12T00:20:30;11.10;99.90
13711;DHT22;6927;51.256;9.410;2022-09-12T00:22:56;11.00;99.90
13711;DHT22;6927;51.256;9.410;2022-09-12T00:25:21;11.00;99.90
13711;DHT22;6927;51.256;9.410;2022-09-12T00:27:47;10.90;99.90
13711;DHT22;6927;51.256;9.410;2022-09-12T00:30:13;10.90;99.90
13711;DHT22;6927;51.256;9.410;2022-09-12T00:32:38;10.90;99.90
13711;DHT22;6927;51.256;9.410;2022-09-12T00:35:04;10.90;99.90
13711;DHT22;6927;51.256;9.410;2022-09-12T00:37:30;10.90;99.90
13711;DHT22;6927;51.256;9.410;2022-09-12T00:39:55;10.90;99.90
13711;DHT22;6927;51.256;9.410;2022-09-12T00:42:22;10.90;99.90
13711;DHT22;6927;51.256;9.410;2022-09-12T00:44:50;10.90;99.90
13711;DHT22;6927;51.256;9.410;2022-09-12T00:47:21;10.80;99.90
13711;DHT22;6927;51.256;9.410;2022-09-12T00:55:11;10.80;99.90
13711;DHT22;6927;51.256;9.410;2022-09-12T00:58:04;10.70;99.90
13711;DHT22;6927;51.256;9.410;2022-09-12T01:00:31;10.70;99.90
13711;DHT22;6927;51.256;9.410;2022-09-12T01:03:03;10.70;99.90
13711;DHT22;6927;51.256;9.410;2022-09-12T01:05:33;10.60;99.90
13711;DHT22;6927;51.256;9.410;2022-09-12T01:08:03;10.60;99.90
13711;DHT22;6927;51.256;9.410;2022-09-12T01:10:35;10.60;99.90
13711;DHT22;6927;51.256;9.410;2022-09-12T01:13:05;10.60;99.90
13711;DHT22;6927;51.256;9.410;2022-09-12T01:15:36;10.50;99.90
13711;DHT22;6927;51.256;9.410;2022-09-12T01:18:29;10.50;99.90
13711;DHT22;6927;51.256;9.410;2022-09-12T01:27:02;10.50;99.90
13711;DHT22;6927;51.256;9.410;2022-09-12T01:29:53;10.50;99.90
13711;DHT22;6927;51.256;9.410;2022-09-12T01:35:29;10.50;99.90
13711;DHT22;6927;51.256;9.410;2022-09-12T01:43:43;10.50;99.90
13711;DHT22;6927;51.256;9.410;2022-09-12T01:46:18;10.50;99.90
13711;DHT22;6927;51.256;9.410;2022-09-12T01:48:58;10.50;99.90
13711;DHT22;6927;51.256;9.410;2022-09-12T01:51:31;10.50;99.90
13711;DHT22;6927;51.256;9.410;2022-09-12T01:54:18;10.40;99.90
13711;DHT22;6927;51.256;9.410;2022-09-12T01:56:46;10.40;99.90
13711;DHT22;6927;51.256;9.410;2022-09-12T01:59:29;10.40;99.90
13711;DHT22;6927;51.256;9.410;2022-09-12T02:01:59;10.40;99.90
13711;DHT22;6927;51.256;9.410;2022-09-12T02:05:16;10.30;99.90
13711;DHT22;6927;51.256;9.410;2022-09-12T02:07:32;10.30;99.90
13711;DHT22;6927;51.256;9.410;2022-09-12T02:10:11;10.30;99.90
13711;DHT22;6927;51.256;9.410;2022-09-12T02:12:48;10.30;99.90
13711;DHT22;6927;51.256;9.410;2022-09-12T02:15:17;10.30;99.90
13711;DHT22;6927;51.256;9.410;2022-09-12T02:17:48;10.30;99.90
13711;DHT22;6927;51.256;9.410;2022-09-12T02:20:21;10.30;99.90
13711;DHT22;6927;51.256;9.410;2022-09-12T02:22:48;10.20;99.90
13711;DHT22;6927;51.256;9.410;2022-09-12T02:25:16;10.20;99.90
13711;DHT22;6927;51.256;9.410;2022-09-12T02:27:44;10.20;99.90
13711;DHT22;6927;51.256;9.410;2022-09-12T02:30:11;10.20;99.90
13711;DHT22;6927;51.256;9.410;2022-09-12T02:40:39;10.30;99.90
13711;DHT22;6927;51.256;9.410;2022-09-12T02:43:05;10.30;99.90
13711;DHT22;6927;51.256;9.410;2022-09-12T02:45:33;10.30;99.90
13711;DHT22;6927;51.256;9.410;2022-09-12T02:48:21;10.30;99.90
13711;DHT22;6927;51.256;9.410;2022-09-12T02:50:49;10.40;99.90
13711;DHT22;6927;51.256;9.410;2022-09-12T02:53:14;10.40;99.90
13711;DHT22;6927;51.256;9.410;2022-09-12T02:55:41;10.40;99.90
13711;DHT22;6927;51.256;9.410;2022-09-12T02:58:31;10.50;99.90
13711;DHT22;6927;51.256;9.410;2022-09-12T03:04:14;10.50;99.90
13711;DHT22;6927;51.256;9.410;2022-09-12T03:06:52;10.50;99.90
13711;DHT22;6927;51.256;9.410;2022-09-12T03:21:24;10.60;99.90
13711;DHT22;6927;51.256;9.410;2022-09-12T03:24:29;10.60;99.90
13711;DHT22;6927;51.256;9.410;2022-09-12T03:27:33;10.60;99.90
13711;DHT22;6927;51.256;9.410;2022-09-12T03:30:02;10.60;99.90
13711;DHT22;6927;51.256;9.410;2022-09-12T03:32:50;10.60;99.90
13711;DHT22;6927;51.256;9.410;2022-09-12T03:35:18;10.70;99.90
13711;DHT22;6927;51.256;9.410;2022-09-12T03:37:46;10.60;99.90
13711;DHT22;6927;51.256;9.410;2022-09-12T03:40:22;10.70;99.90
13711;DHT22;6927;51.256;9.410;2022-09-12T03:42:47;10.70;99.90
13711;DHT22;6927;51.256;9.410;2022-09-12T03:45:16;10.70;99.90
13711;DHT22;6927;51.256;9.410;2022-09-12T03:47:42;10.70;99.90
13711;DHT22;6927;51.256;9.410;2022-09-12T03:50:07;10.70;99.90
13711;DHT22;6927;51.256;9.410;2022-09-12T03:52:33;10.70;99.90
13711;DHT22;6927;51.256;9.410;2022-09-12T03:54:59;10.80;99.90
13711;DHT22;6927;51.256;9.410;2022-09-12T03:57:24;10.80;99.90
13711;DHT22;6927;51.256;9.410;2022-09-12T03:59:50;10.70;99.90
13711;DHT22;6927;51.256;9.410;2022-09-12T04:02:16;10.70;99.90
13711;DHT22;6927;51.256;9.410;2022-09-12T04:04:44;10.60;99.90
13711;DHT22;6927;51.256;9.410;2022-09-12T04:07:12;10.60;99.90
13711;DHT22;6927;51.256;9.410;2022-09-12T04:09:41;10.50;99.90
13711;DHT22;6927;51.256;9.410;2022-09-12T04:12:06;10.50;99.90
13711;DHT22;6927;51.256;9.410;2022-09-12T04:14:32;10.50;99.90
13711;DHT22;6927;51.256;9.410;2022-09-12T04:16:58;10.40;99.90
13711;DHT22;6927;51.256;9.410;2022-09-12T04:19:25;10.40;99.90
13711;DHT22;6927;51.256;9.410;2022-09-12T04:21:50;10.50;99.90
13711;DHT22;6927;51.256;9.410;2022-09-12T04:24:16;10.40;99.90
13711;DHT22;6927;51.256;9.410;2022-09-12T04:26:42;10.40;99.90
13711;DHT22;6927;51.256;9.410;2022-09-12T04:29:10;10.40;99.90
13711;DHT22;6927;51.256;9.410;2022-09-12T04:31:36;10.50;99.90
13711;DHT22;6927;51.256;9.410;2022-09-12T04:34:02;10.50;99.90
13711;DHT22;6927;51.256;9.410;2022-09-12T04:36:28;10.50;99.90
13711;DHT22;6927;51.256;9.410;2022-09-12T04:38:54;10.50;99.90
13711;DHT22;6927;51.256;9.410;2022-09-12T04:41:22;10.40;99.90
13711;DHT22;6927;51.256;9.410;2022-09-12T04:43:52;10.40;99.90
13711;DHT22;6927;51.256;9.410;2022-09-12T04:46:18;10.40;99.90
13711;DHT22;6927;51.256;9.410;2022-09-12T04:48:47;10.40;99.90
13711;DHT22;6927;51.256;9.410;2022-09-12T04:51:19;10.40;99.90
13711;DHT22;6927;51.256;9.410;2022-09-12T04:53:51;10.50;99.90
13711;DHT22;6927;51.256;9.410;2022-09-12T04:56:18;10.50;99.90
13711;DHT22;6927;51.256;9.410;2022-09-12T04:58:44;10.50;99.90
13711;DHT22;6927;51.256;9.410;2022-09-12T05:01:12;10.50;99.90
13711;DHT22;6927;51.256;9.410;2022-09-12T05:03:38;10.40;99.90
13711;DHT22;6927;51.256;9.410;2022-09-12T05:06:05;10.40;99.90
13711;DHT22;6927;51.256;9.410;2022-09-12T05:08:32;10.40;99.90
13711;DHT22;6927;51.256;9.410;2022-09-12T05:11:15;10.40;99.90
13711;DHT22;6927;51.256;9.410;2022-09-12T05:13:40;10.40;99.90
13711;DHT22;6927;51.256;9.410;2022-09-12T05:16:08;10.40;99.90
13711;DHT22;6927;51.256;9.410;2022-09-12T05:18:35;10.40;99.90
13711;DHT22;6927;51.256;9.410;2022-09-12T05:21:04;10.50;99.90
13711;DHT22;6927;51.256;9.410;2022-09-12T05:23:31;10.50;99.90
13711;DHT22;6927;51.256;9.410;2022-09-12T05:25:58;10.50;99.90
13711;DHT22;6927;51.256;9.410;2022-09-12T05:28:27;10.50;99.90
13711;DHT22;6927;51.256;9.410;2022-09-12T05:33:29;10.40;99.90
13711;DHT22;6927;51.256;9.410;2022-09-12T05:35:55;10.40;99.90
13711;DHT22;6927;51.256;9.410;2022-09-12T05:38:21;10.40;99.90
13711;DHT22;6927;51.256;9.410;2022-09-12T05:40:48;10.40;99.90
13711;DHT22;6927;51.256;9.410;2022-09-12T05:43:14;10.40;99.90
13711;DHT22;6927;51.256;9.410;2022-09-12T05:45:39;10.40;99.90
13711;DHT22;6927;51.256;9.410;2022-09-12T05:48:06;10.50;99.90
13711;DHT22;6927;51.256;9.410;2022-09-12T05:50:31;10.60;99.90
13711;DHT22;6927;51.256;9.410;2022-09-12T05:52:57;10.60;99.90
13711;DHT22;6927;51.256;9.410;2022-09-12T05:55:23;10.70;99.90
13711;DHT22;6927;51.256;9.410;2022-09-12T05:57:49;10.70;99.90
13711;DHT22;6927;51.256;9.410;2022-09-12T06:00:15;10.70;99.90
13711;DHT22;6927;51.256;9.410;2022-09-12T06:02:41;10.70;99.90
13711;DHT22;6927;51.256;9.410;2022-09-12T06:05:07;10.70;99.90
13711;DHT22;6927;51.256;9.410;2022-09-12T06:07:33;10.80;99.90
13711;DHT22;6927;51.256;9.410;2022-09-12T06:09:59;10.70;99.90
13711;DHT22;6927;51.256;9.410;2022-09-12T06:13:03;10.70;99.90
13711;DHT22;6927;51.256;9.410;2022-09-12T06:18:51;10.70;99.90
13711;DHT22;6927;51.256;9.410;2022-09-12T06:21:18;10.80;99.90
13711;DHT22;6927;51.256;9.410;2022-09-12T06:23:44;10.80;99.90
13711;DHT22;6927;51.256;9.410;2022-09-12T06:26:11;10.90;99.90
13711;DHT22;6927;51.256;9.410;2022-09-12T06:28:39;10.90;99.90
13711;DHT22;6927;51.256;9.410;2022-09-12T06:31:11;11.00;99.90
13711;DHT22;6927;51.256;9.410;2022-09-12T06:33:40;11.10;99.90
13711;DHT22;6927;51.256;9.410;2022-09-12T06:36:11;11.10;99.90
13711;DHT22;6927;51.256;9.410;2022-09-12T06:38:38;11.10;99.90
13711;DHT22;6927;51.256;9.410;2022-09-12T06:41:08;11.20;99.90
13711;DHT22;6927;51.256;9.410;2022-09-12T06:43:35;11.30;99.90
13711;DHT22;6927;51.256;9.410;2022-09-12T06:46:01;11.20;99.90
13711;DHT22;6927;51.256;9.410;2022-09-12T06:48:26;11.30;99.90
13711;DHT22;6927;51.256;9.410;2022-09-12T06:51:01;11.40;99.90
13711;DHT22;6927;51.256;9.410;2022-09-12T06:53:27;11.50;99.90
13711;DHT22;6927;51.256;9.410;2022-09-12T06:55:59;11.50;99.90
13711;DHT22;6927;51.256;9.410;2022-09-12T06:58:26;11.70;99.90
13711;DHT22;6927;51.256;9.410;2022-09-12T07:00:56;11.90;99.90
13711;DHT22;6927;51.256;9.410;2022-09-12T07:03:25;12.00;99.90
13711;DHT22;6927;51.256;9.410;2022-09-12T07:05:51;12.10;99.90
13711;DHT22;6927;51.256;9.410;2022-09-12T07:08:16;12.10;99.90
13711;DHT22;6927;51.256;9.410;2022-09-12T07:10:42;12.10;99.90
13711;DHT22;6927;51.256;9.410;2022-09-12T07:13:07;12.00;99.90
13711;DHT22;6927;51.256;9.410;2022-09-12T07:15:34;12.00;99.90
13711;DHT22;6927;51.256;9.410;2022-09-12T07:17:59;12.10;99.90
13711;DHT22;6927;51.256;9.410;2022-09-12T07:20:25;12.30;99.90
13711;DHT22;6927;51.256;9.410;2022-09-12T07:22:50;12.40;99.90
13711;DHT22;6927;51.256;9.410;2022-09-12T07:25:16;12.50;99.90
13711;DHT22;6927;51.256;9.410;2022-09-12T07:27:42;12.70;99.90
13711;DHT22;6927;51.256;9.410;2022-09-12T07:30:08;12.70;99.90
13711;DHT22;6927;51.256;9.410;2022-09-12T07:32:33;12.70;99.90
13711;DHT22;6927;51.256;9.410;2022-09-12T07:34:59;12.70;99.90
13711;DHT22;6927;51.256;9.410;2022-09-12T07:37:24;12.70;99.90
13711;DHT22;6927;51.256;9.410;2022-09-12T07:39:50;12.60;99.90
13711;DHT22;6927;51.256;9.410;2022-09-12T07:42:15;12.80;99.90
13711;DHT22;6927;51.256;9.410;2022-09-12T07:44:41;13.10;99.90
13711;DHT22;6927;51.256;9.410;2022-09-12T07:47:07;13.30;99.90
13711;DHT22;6927;51.256;9.410;2022-09-12T07:49:32;13.50;99.90
13711;DHT22;6927;51.256;9.410;2022-09-12T07:51:58;13.50;99.90
13711;DHT22;6927;51.256;9.410;2022-09-12T07:54:23;13.50;99.90
13711;DHT22;6927;51.256;9.410;2022-09-12T07:56:49;13.70;99.90
13711;DHT22;6927;51.256;9.410;2022-09-12T07:59:14;13.70;99.90
13711;DHT22;6927;51.256;9.410;2022-09-12T08:01:40;13.70;99.90
13711;DHT22;6927;51.256;9.410;2022-09-12T08:04:06;14.00;99.90
13711;DHT22;6927;51.256;9.410;2022-09-12T08:06:33;14.10;99.90
13711;DHT22;6927;51.256;9.410;2022-09-12T08:09:00;14.40;99.90
13711;DHT22;6927;51.256;9.410;2022-09-12T08:11:27;14.80;99.90
13711;DHT22;6927;51.256;9.410;2022-09-12T08:13:53;15.20;99.90
13711;DHT22;6927;51.256;9.410;2022-09-12T08:16:22;15.80;99.90
13711;DHT22;6927;51.256;9.410;2022-09-12T08:18:48;16.90;99.90
13711;DHT22;6927;51.256;9.410;2022-09-12T08:21:24;18.00;99.90
13711;DHT22;6927;51.256;9.410;2022-09-12T08:24:13;19.10;99.90
13711;DHT22;6927;51.256;9.410;2022-09-12T08:26:48;19.90;99.90
13711;DHT22;6927;51.256;9.410;2022-09-12T08:29:49;20.40;99.90
13711;DHT22;6927;51.256;9.410;2022-09-12T08:32:15;21.60;99.90
13711;DHT22;6927;51.256;9.410;2022-09-12T08:34:40;22.40;99.90
13711;DHT22;6927;51.256;9.410;2022-09-12T08:37:12;23.00;99.90
13711;DHT22;6927;51.256;9.410;2022-09-12T08:39:40;23.10;99.90
13711;DHT22;6927;51.256;9.410;2022-09-12T08:42:31;23.10;99.90
13711;DHT22;6927;51.256;9.410;2022-09-12T08:45:15;23.30;99.90
13711;DHT22;6927;51.256;9.410;2022-09-12T08:47:50;23.50;99.90
13711;DHT22;6927;51.256;9.410;2022-09-12T08:50:28;23.30;99.90
13711;DHT22;6927;51.256;9.410;2022-09-12T08:53:21;22.70;99.90
13711;DHT22;6927;51.256;9.410;2022-09-12T08:56:04;22.60;99.90
13711;DHT22;6927;51.256;9.410;2022-09-12T08:58:39;23.00;99.90
13711;DHT22;6927;51.256;9.410;2022-09-12T09:07:32;23.50;99.90
13711;DHT22;6927;51.256;9.410;2022-09-12T09:10:33;24.10;99.90
13711;DHT22;6927;51.256;9.410;2022-09-12T09:16:59;24.10;99.90
13711;DHT22;6927;51.256;9.410;2022-09-12T09:20:15;25.00;99.90
13711;DHT22;6927;51.256;9.410;2022-09-12T09:23:00;24.60;99.90
13711;DHT22;6927;51.256;9.410;2022-09-12T09:31:20;23.50;99.90
13711;DHT22;6927;51.256;9.410;2022-09-12T09:42:59;22.50;99.90
13711;DHT22;6927;51.256;9.410;2022-09-12T09:45:32;22.20;99.90
13711;DHT22;6927;51.256;9.410;2022-09-12T09:48:16;21.60;99.90
13711;DHT22;6927;51.256;9.410;2022-09-12T09:51:12;21.00;99.90
13711;DHT22;6927;51.256;9.410;2022-09-12T09:53:56;21.00;99.90
13711;DHT22;6927;51.256;9.410;2022-09-12T09:56:38;20.70;99.90
13711;DHT22;6927;51.256;9.410;2022-09-12T09:59:33;20.50;99.90
13711;DHT22;6927;51.256;9.410;2022-09-12T10:04:57;20.50;99.90
13711;DHT22;6927;51.256;9.410;2022-09-12T10:08:03;20.90;99.90
13711;DHT22;6927;51.256;9.410;2022-09-12T10:11:16;21.00;99.90
13711;DHT22;6927;51.256;9.410;2022-09-12T10:13:52;21.10;99.90
13711;DHT22;6927;51.256;9.410;2022-09-12T10:19:02;22.10;99.90
13711;DHT22;6927;51.256;9.410;2022-09-12T10:24:49;21.50;99.90
13711;DHT22;6927;51.256;9.410;2022-09-12T10:27:30;21.80;99.90
13711;DHT22;6927;51.256;9.410;2022-09-12T10:30:14;21.90;99.90
13711;DHT22;6927;51.256;9.410;2022-09-12T10:33:07;22.10;99.90
13711;DHT22;6927;51.256;9.410;2022-09-12T10:35:57;22.30;99.90
13711;DHT22;6927;51.256;9.410;2022-09-12T10:39:02;22.30;99.90
13711;DHT22;6927;51.256;9.410;2022-09-12T10:41:47;22.10;99.90
13711;DHT22;6927;51.256;9.410;2022-09-12T10:44:17;22.30;99.90
13711;DHT22;6927;51.256;9.410;2022-09-12T10:46:53;22.30;99.90
13711;DHT22;6927;51.256;9.410;2022-09-12T10:49:34;22.20;99.90
13711;DHT22;6927;51.256;9.410;2022-09-12T10:52:26;22.40;99.90
13711;DHT22;6927;51.256;9.410;2022-09-12T10:55:04;22.40;99.90
13711;DHT22;6927;51.256;9.410;2022-09-12T10:58:03;22.20;99.90
13711;DHT22;6927;51.256;9.410;2022-09-12T11:00:38;21.70;99.90
13711;DHT22;6927;51.256;9.410;2022-09-12T11:03:21;21.70;99.90
13711;DHT22;6927;51.256;9.410;2022-09-12T11:05:54;22.10;99.90
13711;DHT22;6927;51.256;9.410;2022-09-12T11:14:33;22.20;99.90
13711;DHT22;6927;51.256;9.410;2022-09-12T11:17:40;22.40;99.90
13711;DHT22;6927;51.256;9.410;2022-09-12T11:20:34;22.30;99.90
13711;DHT22;6927;51.256;9.410;2022-09-12T11:32:40;22.10;99.90
13711;DHT22;6927;51.256;9.410;2022-09-12T11:35:32;21.80;99.90
13711;DHT22;6927;51.256;9.410;2022-09-12T11:41:14;21.80;99.90
13711;DHT22;6927;51.256;9.410;2022-09-12T11:47:17;22.10;99.90
13711;DHT22;6927;51.256;9.410;2022-09-12T11:50:05;22.30;99.90
13711;DHT22;6927;51.256;9.410;2022-09-12T11:52:49;22.20;99.90
13711;DHT22;6927;51.256;9.410;2022-09-12T11:55:33;22.20;99.90
13711;DHT22;6927;51.256;9.410;2022-09-12T11:58:10;22.20;99.90
13711;DHT22;6927;51.256;9.410;2022-09-12T12:00:58;22.00;99.90
13711;DHT22;6927;51.256;9.410;2022-09-12T12:03:49;22.10;99.90
13711;DHT22;6927;51.256;9.410;2022-09-12T12:06:26;22.50;99.90
13711;DHT22;6927;51.256;9.410;2022-09-12T12:09:04;23.10;99.90
13711;DHT22;6927;51.256;9.410;2022-09-12T12:11:43;23.90;99.90
13711;DHT22;6927;51.256;9.410;2022-09-12T12:14:48;24.10;99.90
13711;DHT22;6927;51.256;9.410;2022-09-12T12:17:38;24.30;99.90
13711;DHT22;6927;51.256;9.410;2022-09-12T12:20:15;24.20;99.90
13711;DHT22;6927;51.256;9.410;2022-09-12T12:23:19;23.60;99.90
13711;DHT22;6927;51.256;9.410;2022-09-12T12:25:54;23.30;99.90
13711;DHT22;6927;51.256;9.410;2022-09-12T12:31:27;23.00;99.90
13711;DHT22;6927;51.256;9.410;2022-09-12T12:34:03;23.00;99.90
13711;DHT22;6927;51.256;9.410;2022-09-12T12:36:41;22.80;99.90
13711;DHT22;6927;51.256;9.410;2022-09-12T12:47:44;22.40;99.90
13711;DHT22;6927;51.256;9.410;2022-09-12T12:52:47;22.30;99.90
13711;DHT22;6927;51.256;9.410;2022-09-12T12:55:24;22.20;99.90
13711;DHT22;6927;51.256;9.410;2022-09-12T13:00:47;22.30;99.90
13711;DHT22;6927;51.256;9.410;2022-09-12T13:03:31;22.20;99.90
13711;DHT22;6927;51.256;9.410;2022-09-12T13:06:05;22.00;99.90
13711;DHT22;6927;51.256;9.410;2022-09-12T13:08:44;22.20;99.90
13711;DHT22;6927;51.256;9.410;2022-09-12T13:11:39;22.30;99.90
13711;DHT22;6927;51.256;9.410;2022-09-12T13:14:48;22.30;99.90
13711;DHT22;6927;51.256;9.410;2022-09-12T13:17:30;22.20;99.90
13711;DHT22;6927;51.256;9.410;2022-09-12T13:20:25;22.00;99.90
13711;DHT22;6927;51.256;9.410;2022-09-12T13:23:01;21.90;99.90
13711;DHT22;6927;51.256;9.410;2022-09-12T13:25:41;22.10;99.90
13711;DHT22;6927;51.256;9.410;2022-09-12T13:28:26;22.50;99.90
13711;DHT22;6927;51.256;9.410;2022-09-12T13:34:06;22.70;99.90
13711;DHT22;6927;51.256;9.410;2022-09-12T13:39:25;22.30;99.90
13711;DHT22;6927;51.256;9.410;2022-09-12T13:45:22;23.00;99.90
13711;DHT22;6927;51.256;9.410;2022-09-12T13:48:13;23.50;99.90
13711;DHT22;6927;51.256;9.410;2022-09-12T13:54:03;23.90;99.90
13711;DHT22;6927;51.256;9.410;2022-09-12T13:59:43;23.50;99.90
13711;DHT22;6927;51.256;9.410;2022-09-12T14:02:27;23.40;99.90
13711;DHT22;6927;51.256;9.410;2022-09-12T14:05:21;23.10;99.90
13711;DHT22;6927;51.256;9.410;2022-09-12T14:07:57;22.70;99.90
13711;DHT22;6927;51.256;9.410;2022-09-12T14:10:33;22.40;99.90
13711;DHT22;6927;51.256;9.410;2022-09-12T14:13:18;22.20;99.90
13711;DHT22;6927;51.256;9.410;2022-09-12T14:15:49;22.00;99.90
13711;DHT22;6927;51.256;9.410;2022-09-12T14:18:29;21.90;99.90
13711;DHT22;6927;51.256;9.410;2022-09-12T14:21:35;22.10;99.90
13711;DHT22;6927;51.256;9.410;2022-09-12T14:24:05;22.20;99.90
13711;DHT22;6927;51.256;9.410;2022-09-12T14:26:37;22.20;99.90
13711;DHT22;6927;51.256;9.410;2022-09-12T14:29:05;22.20;99.90
13711;DHT22;6927;51.256;9.410;2022-09-12T14:31:34;22.20;99.90
13711;DHT22;6927;51.256;9.410;2022-09-12T14:34:23;22.10;99.90
13711;DHT22;6927;51.256;9.410;2022-09-12T14:36:53;22.40;99.90
13711;DHT22;6927;51.256;9.410;2022-09-12T14:39:31;22.70;99.90
13711;DHT22;6927;51.256;9.410;2022-09-12T14:44:34;23.30;99.90
13711;DHT22;6927;51.256;9.410;2022-09-12T14:47:13;24.00;99.90
13711;DHT22;6927;51.256;9.410;2022-09-12T14:49:45;24.50;99.90
13711;DHT22;6927;51.256;9.410;2022-09-12T14:52:29;25.30;99.90
13711;DHT22;6927;51.256;9.410;2022-09-12T14:55:34;26.80;99.90
13711;DHT22;6927;51.256;9.410;2022-09-12T14:58:26;28.30;99.90
13711;DHT22;6927;51.256;9.410;2022-09-12T15:00:55;28.70;99.90
13711;DHT22;6927;51.256;9.410;2022-09-12T15:06:31;29.00;99.90
13711;DHT22;6927;51.256;9.410;2022-09-12T15:09:19;29.00;99.90
13711;DHT22;6927;51.256;9.410;2022-09-12T15:11:54;28.60;99.90
13711;DHT22;6927;51.256;9.410;2022-09-12T15:14:23;28.00;99.90
13711;DHT22;6927;51.256;9.410;2022-09-12T15:16:52;27.60;99.90
13711;DHT22;6927;51.256;9.410;2022-09-12T15:19:23;27.40;99.90
13711;DHT22;6927;51.256;9.410;2022-09-12T15:21:54;27.20;99.90
13711;DHT22;6927;51.256;9.410;2022-09-12T15:24:25;27.10;99.90
13711;DHT22;6927;51.256;9.410;2022-09-12T15:26:51;27.20;99.90
13711;DHT22;6927;51.256;9.410;2022-09-12T15:29:25;26.70;99.90
13711;DHT22;6927;51.256;9.410;2022-09-12T15:32:02;26.40;99.90
13711;DHT22;6927;51.256;9.410;2022-09-12T15:34:53;26.00;99.90
13711;DHT22;6927;51.256;9.410;2022-09-12T15:37:21;25.30;99.90
13711;DHT22;6927;51.256;9.410;2022-09-12T15:39:47;25.20;99.90
13711;DHT22;6927;51.256;9.410;2022-09-12T15:42:20;25.20;99.90
13711;DHT22;6927;51.256;9.410;2022-09-12T15:44:54;25.00;99.90
13711;DHT22;6927;51.256;9.410;2022-09-12T15:47:20;24.60;99.90
13711;DHT22;6927;51.256;9.410;2022-09-12T15:49:47;24.40;99.90
13711;DHT22;6927;51.256;9.410;2022-09-12T15:52:17;24.40;99.90
13711;DHT22;6927;51.256;9.410;2022-09-12T15:54:45;24.40;99.90
13711;DHT22;6927;51.256;9.410;2022-09-12T15:57:10;24.40;99.90
13711;DHT22;6927;51.256;9.410;2022-09-12T15:59:38;24.20;99.90
13711;DHT22;6927;51.256;9.410;2022-09-12T16:02:04;23.90;99.90
13711;DHT22;6927;51.256;9.410;2022-09-12T16:04:30;23.80;99.90
13711;DHT22;6927;51.256;9.410;2022-09-12T16:06:56;23.70;99.90
13711;DHT22;6927;51.256;9.410;2022-09-12T16:09:22;23.60;99.90
13711;DHT22;6927;51.256;9.410;2022-09-12T16:11:48;23.50;99.90
13711;DHT22;6927;51.256;9.410;2022-09-12T16:14:18;23.40;99.90
13711;DHT22;6927;51.256;9.410;2022-09-12T16:16:45;23.40;99.90
13711;DHT22;6927;51.256;9.410;2022-09-12T16:19:23;23.40;99.90
13711;DHT22;6927;51.256;9.410;2022-09-12T16:21:55;23.30;99.90
13711;DHT22;6927;51.256;9.410;2022-09-12T16:24:21;23.30;99.90
13711;DHT22;6927;51.256;9.410;2022-09-12T16:26:46;23.20;99.90
13711;DHT22;6927;51.256;9.410;2022-09-12T16:29:15;23.00;99.90
13711;DHT22;6927;51.256;9.410;2022-09-12T16:31:41;22.80;99.90
13711;DHT22;6927;51.256;9.410;2022-09-12T16:34:06;22.60;99.90
13711;DHT22;6927;51.256;9.410;2022-09-12T16:36:32;22.50;99.90
13711;DHT22;6927;51.256;9.410;2022-09-12T16:38:57;22.30;99.90
13711;DHT22;6927;51.256;9.410;2022-09-12T16:41:24;22.10;99.90
13711;DHT22;6927;51.256;9.410;2022-09-12T16:43:50;21.90;99.90
13711;DHT22;6927;51.256;9.410;2022-09-12T16:46:26;21.80;99.90
13711;DHT22;6927;51.256;9.410;2022-09-12T16:48:54;21.60;99.90
13711;DHT22;6927;51.256;9.410;2022-09-12T16:51:24;21.40;99.90
13711;DHT22;6927;51.256;9.410;2022-09-12T16:53:50;21.30;99.90
13711;DHT22;6927;51.256;9.410;2022-09-12T16:56:16;21.10;99.90
13711;DHT22;6927;51.256;9.410;2022-09-12T16:58:42;21.00;99.90
13711;DHT22;6927;51.256;9.410;2022-09-12T17:01:19;20.90;99.90
13711;DHT22;6927;51.256;9.410;2022-09-12T17:03:45;20.80;99.90
13711;DHT22;6927;51.256;9.410;2022-09-12T17:06:16;20.70;99.90
13711;DHT22;6927;51.256;9.410;2022-09-12T17:08:45;20.50;99.90
13711;DHT22;6927;51.256;9.410;2022-09-12T17:11:19;20.40;99.90
13711;DHT22;6927;51.256;9.410;2022-09-12T17:13:50;20.30;99.90
13711;DHT22;6927;51.256;9.410;2022-09-12T17:16:16;20.10;99.90
13711;DHT22;6927;51.256;9.410;2022-09-12T17:18:41;20.00;99.90
13711;DHT22;6927;51.256;9.410;2022-09-12T17:21:08;19.80;99.90
13711;DHT22;6927;51.256;9.410;2022-09-12T17:23:34;19.70;99.90
13711;DHT22;6927;51.256;9.410;2022-09-12T17:26:00;19.60;99.90
13711;DHT22;6927;51.256;9.410;2022-09-12T17:28:26;19.50;99.90
13711;DHT22;6927;51.256;9.410;2022-09-12T17:30:56;19.40;99.90
13711;DHT22;6927;51.256;9.410;2022-09-12T17:33:25;19.30;99.90
13711;DHT22;6927;51.256;9.410;2022-09-12T17:35:52;19.10;99.90
13711;DHT22;6927;51.256;9.410;2022-09-12T17:38:18;19.00;99.90
13711;DHT22;6927;51.256;9.410;2022-09-12T17:40:44;19.00;99.90
13711;DHT22;6927;51.256;9.410;2022-09-12T17:43:13;18.90;99.90
13711;DHT22;6927;51.256;9.410;2022-09-12T17:45:40;18.70;99.90
13711;DHT22;6927;51.256;9.410;2022-09-12T17:48:07;18.60;99.90
13711;DHT22;6927;51.256;9.410;2022-09-12T17:50:37;18.50;99.90
13711;DHT22;6927;51.256;9.410;2022-09-12T17:53:03;18.40;99.90
13711;DHT22;6927;51.256;9.410;2022-09-12T17:55:29;18.30;99.90
13711;DHT22;6927;51.256;9.410;2022-09-12T17:57:57;18.20;99.90
13711;DHT22;6927;51.256;9.410;2022-09-12T18:00:24;18.20;99.90
13711;DHT22;6927;51.256;9.410;2022-09-12T18:03:10;18.10;99.90
13711;DHT22;6927;51.256;9.410;2022-09-12T18:05:35;17.90;99.90
13711;DHT22;6927;51.256;9.410;2022-09-12T18:08:01;17.80;99.90
13711;DHT22;6927;51.256;9.410;2022-09-12T18:10:27;17.60;99.90
13711;DHT22;6927;51.256;9.410;2022-09-12T18:12:52;17.50;99.90
13711;DHT22;6927;51.256;9.410;2022-09-12T18:15:18;17.40;99.90
13711;DHT22;6927;51.256;9.410;2022-09-12T18:17:43;17.30;99.90
13711;DHT22;6927;51.256;9.410;2022-09-12T18:20:09;17.10;99.90
13711;DHT22;6927;51.256;9.410;2022-09-12T18:22:34;17.00;99.90
13711;DHT22;6927;51.256;9.410;2022-09-12T18:25:00;16.90;99.90
13711;DHT22;6927;51.256;9.410;2022-09-12T18:27:25;16.90;99.90
13711;DHT22;6927;51.256;9.410;2022-09-12T18:29:51;16.90;99.90
13711;DHT22;6927;51.256;9.410;2022-09-12T18:32:16;16.90;99.90
13711;DHT22;6927;51.256;9.410;2022-09-12T18:34:42;16.90;99.90
13711;DHT22;6927;51.256;9.410;2022-09-12T18:37:07;16.80;99.90
13711;DHT22;6927;51.256;9.410;2022-09-12T18:39:33;16.80;99.90
13711;DHT22;6927;51.256;9.410;2022-09-12T18:41:58;16.60;99.90
13711;DHT22;6927;51.256;9.410;2022-09-12T18:44:24;16.60;99.90